Time;durP1;ratioP1;P1;durP2;ratioP2;P2;SDS_P1;SDS_P2;PMS_P1;PMS_P2;Temp;Humidity;BMP_temperature;BMP_pressure;BME280_temperature;BME280_humidity;BME280_pressure;Samples;Min_cycle;Max_cycle;Signal;HPM_P1;HPM_P2
2023/08/21 00:01:33;;;;;;;;;0.25;0.25;;;;;26.41;45.91;101875.41;5037188;28;45826;-65
2023/08/21 00:04:05;;;;;;;;;0.75;0.75;;;;;26.43;46.24;101875.31;5036997;28;45369;-66
2023/08/21 00:06:31;;;;;;;;;1.00;1.00;;;;;26.44;46.00;101871.69;5035525;28;45443;-67
2023/08/21 00:08:56;;;;;;;;;2.50;1.00;;;;;26.45;46.28;101871.59;5037296;28;45472;-72
2023/08/21 00:11:22;;;;;;;;;2.00;1.00;;;;;26.41;45.74;101859.28;5036834;28;46010;-70
2023/08/21 00:13:49;;;;;;;;;1.00;1.00;;;;;26.27;45.81;101840.25;5036703;28;45276;-70
2023/08/21 00:16:22;;;;;;;;;0.60;0.60;;;;;26.37;45.69;101852.31;5036755;28;45453;-66
2023/08/21 00:18:48;;;;;;;;;2.75;1.00;;;;;26.36;45.54;101847.00;5037868;28;45531;-70
2023/08/21 00:21:14;;;;;;;;;1.00;1.00;;;;;26.39;45.73;101853.09;5036804;28;45404;-65
2023/08/21 00:23:39;;;;;;;;;2.00;1.00;;;;;26.41;45.66;101863.75;5036494;28;45342;-72
2023/08/21 00:26:05;;;;;;;;;1.00;1.00;;;;;26.42;45.67;101854.78;5052149;28;45427;-65
2023/08/21 00:28:33;;;;;;;;;1.00;1.00;;;;;26.38;45.87;101854.03;5051593;28;45470;-64
2023/08/21 00:31:06;;;;;;;;;1.50;1.50;;;;;26.41;45.55;101861.97;5036579;28;46246;-63
2023/08/21 00:33:38;;;;;;;;;1.00;1.00;;;;;26.39;45.56;101855.78;5036956;28;45326;-64
2023/08/21 00:36:03;;;;;;;;;2.60;1.00;;;;;26.40;45.12;101849.47;5035791;28;45462;-64
2023/08/21 00:38:33;;;;;;;;;1.50;1.50;;;;;26.33;45.33;101849.81;5052498;28;45469;-64
2023/08/21 00:40:58;;;;;;;;;1.00;1.00;;;;;26.16;45.09;101830.00;5035549;28;45461;-64
2023/08/21 00:43:30;;;;;;;;;1.00;1.00;;;;;26.27;45.63;101850.09;5036156;28;45561;-66
2023/08/21 00:45:56;;;;;;;;;2.00;1.00;;;;;26.25;45.21;101852.00;5036600;28;45428;-62
2023/08/21 00:48:22;;;;;;;;;2.50;1.00;;;;;26.08;45.42;101824.13;5038961;28;45452;-64
2023/08/21 00:50:48;;;;;;;;;1.00;1.00;;;;;26.17;44.92;101842.50;5037435;28;46285;-64
2023/08/21 00:53:14;;;;;;;;;1.40;1.00;;;;;26.20;45.25;101853.09;5036155;28;45401;-63
2023/08/21 00:55:40;;;;;;;;;2.25;1.00;;;;;26.17;45.48;101849.66;5035644;28;45498;-64
2023/08/21 00:58:06;;;;;;;;;1.00;0.75;;;;;26.16;45.38;101853.28;5036576;28;45468;-66
2023/08/21 01:00:34;;;;;;;;;0.75;0.75;;;;;26.14;45.42;101849.81;5036423;28;45429;-67
2023/08/21 01:02:59;;;;;;;;;1.00;1.00;;;;;26.11;45.37;101848.13;5037491;28;45336;-65
2023/08/21 01:05:25;;;;;;;;;0.50;0.25;;;;;26.03;45.08;101839.56;5037070;28;45337;-63
2023/08/21 01:08:01;;;;;;;;;0.50;0.50;;;;;26.07;45.14;101851.88;5037752;28;45402;-62
2023/08/21 01:10:45;;;;;;;;;1.00;0.00;;;;;26.06;45.31;101863.59;5035976;28;47196;-63
2023/08/21 01:13:33;;;;;;;;;2.40;0.40;;;;;26.04;45.11;101868.16;5037498;28;45236;-62
2023/08/21 01:16:04;;;;;;;;;1.20;0.20;;;;;26.01;45.10;101861.09;5036335;28;46075;-62
2023/08/21 01:18:32;;;;;;;;;2.00;0.75;;;;;26.00;44.86;101855.78;5036701;28;45345;-62
2023/08/21 01:20:58;;;;;;;;;0.75;0.25;;;;;25.98;45.13;101860.34;5036147;28;45521;-63
2023/08/21 01:23:35;;;;;;;;;0.00;0.00;;;;;25.91;45.52;101848.16;5035828;28;45473;-62
2023/08/21 01:26:01;;;;;;;;;1.40;0.60;;;;;25.92;45.32;101860.66;5034996;28;45316;-62
2023/08/21 01:28:28;;;;;;;;;1.00;1.00;;;;;25.90;45.11;101855.34;5034833;28;45785;-62
2023/08/21 01:31:36;;;;;;;;;0.00;0.00;;;;;25.88;45.54;101867.09;5036453;28;45428;-62
2023/08/21 01:34:06;;;;;;;;;1.20;1.00;;;;;25.86;45.22;101871.59;5036544;28;45550;-62
2023/08/21 01:36:32;;;;;;;;;0.80;0.60;;;;;25.82;44.88;101870.88;5039807;28;45396;-62
2023/08/21 01:38:57;;;;;;;;;2.00;1.00;;;;;25.78;45.52;101870.13;5039787;28;45310;-64
2023/08/21 01:41:24;;;;;;;;;0.25;0.25;;;;;25.68;45.31;101851.84;5039171;28;45952;-63
2023/08/21 01:43:50;;;;;;;;;0.20;0.20;;;;;25.78;45.66;101875.50;5039417;28;45359;-63
2023/08/21 01:46:16;;;;;;;;;0.00;0.00;;;;;25.73;45.33;101868.59;5039283;28;45327;-62
2023/08/21 01:48:42;;;;;;;;;4.50;2.50;;;;;25.65;45.28;101851.94;5040939;28;45563;-62
2023/08/21 01:51:08;;;;;;;;;3.00;3.00;;;;;25.67;45.81;101856.31;5038348;28;46712;-63
2023/08/21 01:53:33;;;;;;;;;1.25;1.00;;;;;25.70;45.22;101872.31;5038135;28;45526;-63
2023/08/21 01:55:59;;;;;;;;;0.00;0.00;;;;;25.74;45.67;101873.03;5039175;28;45290;-63
2023/08/21 01:58:24;;;;;;;;;1.00;1.00;;;;;25.72;45.79;101869.53;5039483;28;45384;-63
2023/08/21 02:00:50;;;;;;;;;1.00;1.00;;;;;25.66;45.70;101873.34;5039021;28;45551;-63
2023/08/21 02:03:15;;;;;;;;;3.00;1.00;;;;;25.70;45.70;101871.41;5056125;28;45496;-62
2023/08/21 02:05:41;;;;;;;;;0.50;0.00;;;;;25.69;45.78;101872.34;5040043;28;45496;-62
2023/08/21 02:08:11;;;;;;;;;1.00;1.00;;;;;25.69;45.46;101873.22;5040044;28;45361;-62
2023/08/21 02:10:37;;;;;;;;;2.00;0.00;;;;;25.67;45.31;101877.78;5037541;28;45598;-64
2023/08/21 02:13:03;;;;;;;;;2.00;2.00;;;;;25.67;45.46;101877.78;5054638;28;45405;-65
2023/08/21 02:15:28;;;;;;;;;1.00;1.00;;;;;25.66;45.89;101875.19;5038514;28;45404;-64
2023/08/21 02:17:57;;;;;;;;;0.25;0.25;;;;;25.66;45.64;101875.19;5038258;28;45502;-63
2023/08/21 02:20:23;;;;;;;;;1.00;1.00;;;;;25.62;45.80;101865.50;5039104;28;45513;-64
2023/08/21 02:22:48;;;;;;;;;1.25;0.50;;;;;25.55;45.97;101857.72;5039258;28;45466;-64
2023/08/21 02:25:17;;;;;;;;;1.25;1.00;;;;;25.59;45.51;101869.19;5038561;28;45464;-62
2023/08/21 02:27:42;;;;;;;;;2.00;2.00;;;;;25.50;45.72;101858.88;5038827;28;45417;-62
2023/08/21 02:30:08;;;;;;;;;2.00;0.75;;;;;25.50;46.21;101856.19;5038021;28;46187;-63
2023/08/21 02:32:34;;;;;;;;;1.00;1.00;;;;;25.51;45.75;101866.00;5038874;28;45483;-62
2023/08/21 02:35:00;;;;;;;;;1.00;1.00;;;;;25.49;45.73;101865.19;5038328;28;45331;-62
2023/08/21 02:37:25;;;;;;;;;1.00;0.00;;;;;25.37;46.01;101843.31;5038610;28;45362;-62
2023/08/21 02:39:51;;;;;;;;;1.00;1.00;;;;;25.44;46.04;101861.78;5039040;28;45476;-63
2023/08/21 02:42:16;;;;;;;;;2.00;1.75;;;;;25.32;46.05;101839.94;5039845;28;45374;-63
2023/08/21 02:44:41;;;;;;;;;0.25;0.25;;;;;25.46;46.58;101857.25;5038184;28;45433;-63
2023/08/21 02:47:07;;;;;;;;;2.00;1.75;;;;;25.48;46.29;101866.09;5037356;28;45538;-62
2023/08/21 02:49:32;;;;;;;;;3.00;1.00;;;;;25.45;46.47;101863.56;5037211;28;47709;-62
2023/08/21 02:51:58;;;;;;;;;2.75;1.50;;;;;25.49;46.44;101870.53;5038298;28;45421;-64
2023/08/21 02:54:23;;;;;;;;;3.25;0.25;;;;;25.51;46.10;101874.91;5038874;28;45356;-63
2023/08/21 02:56:49;;;;;;;;;0.75;0.00;;;;;25.49;46.15;101862.50;5039825;28;45646;-63
2023/08/21 02:59:14;;;;;;;;;2.00;1.75;;;;;25.51;46.51;101871.34;5038170;28;46241;-63
2023/08/21 03:01:40;;;;;;;;;1.00;1.00;;;;;25.51;45.94;101871.34;5037823;28;45460;-63
2023/08/21 03:04:15;;;;;;;;;3.75;1.25;;;;;25.43;46.43;101854.69;5038518;28;45306;-63
2023/08/21 03:06:40;;;;;;;;;4.00;2.00;;;;;25.43;46.48;101852.00;5036209;28;45605;-64
2023/08/21 03:09:06;;;;;;;;;1.00;1.00;;;;;25.45;46.35;101856.38;5037804;28;45498;-63
2023/08/21 03:11:31;;;;;;;;;1.25;1.25;;;;;25.45;46.07;101858.19;5037768;28;45461;-64
2023/08/21 03:13:57;;;;;;;;;1.75;1.00;;;;;25.45;46.47;101852.81;5038057;28;45356;-65
2023/08/21 03:16:22;;;;;;;;;2.75;2.25;;;;;25.46;46.16;101859.91;5038816;28;45519;-64
2023/08/21 03:19:00;;;;;;;;;1.75;1.75;;;;;25.47;46.02;101862.56;5038488;28;46015;-64
2023/08/21 03:21:25;;;;;;;;;2.00;2.00;;;;;25.44;46.08;101859.09;5038424;28;45509;-64
2023/08/21 03:23:54;;;;;;;;;3.00;3.00;;;;;25.29;46.44;101836.50;5039423;28;45507;-64
2023/08/21 03:26:20;;;;;;;;;2.50;2.00;;;;;25.40;46.09;101855.69;5039318;28;45443;-64
2023/08/21 03:28:45;;;;;;;;;5.00;3.00;;;;;25.42;46.33;101858.34;5036670;28;45780;-64
2023/08/21 03:31:11;;;;;;;;;4.00;2.25;;;;;25.37;46.51;101854.03;5037772;28;45393;-62
2023/08/21 03:33:36;;;;;;;;;2.50;2.00;;;;;25.33;46.42;101852.41;5038726;28;45319;-62
2023/08/21 03:36:02;;;;;;;;;5.00;3.50;;;;;25.32;46.61;101869.44;5038435;28;45422;-66
2023/08/21 03:38:27;;;;;;;;;4.25;3.50;;;;;25.31;46.08;101874.84;5037301;28;45933;-63
2023/08/21 03:40:53;;;;;;;;;5.25;4.00;;;;;25.26;46.28;101869.69;5037412;28;45421;-63
2023/08/21 03:43:18;;;;;;;;;4.75;3.75;;;;;25.18;46.32;101858.41;5037228;28;45538;-64
2023/08/21 03:45:44;;;;;;;;;3.25;3.25;;;;;25.25;46.53;101869.72;5037205;28;45453;-64
2023/08/21 03:48:09;;;;;;;;;5.75;4.00;;;;;25.25;46.29;101880.47;5036954;28;46016;-65
2023/08/21 03:50:39;;;;;;;;;3.75;3.75;;;;;25.16;46.64;101857.56;5036748;28;45537;-65
2023/08/21 03:53:04;;;;;;;;;5.75;3.00;;;;;25.23;46.74;101877.00;5035842;28;45338;-66
2023/08/21 03:55:30;;;;;;;;;6.75;3.75;;;;;25.23;46.39;101880.53;5037314;28;45784;-68
2023/08/21 03:57:56;;;;;;;;;4.75;4.75;;;;;25.19;46.23;101870.88;5036503;28;45411;-67
2023/08/21 04:00:22;;;;;;;;;6.75;6.00;;;;;25.20;46.87;101869.97;5037133;28;45519;-66
2023/08/21 04:02:47;;;;;;;;;4.00;4.00;;;;;25.21;46.96;101874.38;5037476;28;45574;-65
2023/08/21 04:05:13;;;;;;;;;8.00;4.00;;;;;25.20;46.51;101880.69;5037418;28;45348;-63
2023/08/21 04:07:39;;;;;;;;;5.00;4.00;;;;;25.19;46.51;101873.56;5036905;28;46034;-63
2023/08/21 04:10:06;;;;;;;;;4.25;3.25;;;;;25.12;47.00;101855.94;5035564;28;45431;-63
2023/08/21 04:12:31;;;;;;;;;5.75;4.00;;;;;25.15;46.66;101870.13;5037272;28;45438;-61
2023/08/21 04:14:57;;;;;;;;;4.00;4.00;;;;;25.14;46.90;101865.66;5034878;28;45550;-62
2023/08/21 04:17:23;;;;;;;;;5.00;5.00;;;;;25.13;46.69;101868.44;5031322;28;45580;-63
2023/08/21 04:19:49;;;;;;;;;5.00;3.50;;;;;25.08;46.94;101868.63;5036854;28;46175;-63
2023/08/21 04:22:14;;;;;;;;;4.75;3.25;;;;;25.10;46.88;101880.13;5036832;28;45447;-63
2023/08/21 04:24:41;;;;;;;;;4.00;2.25;;;;;25.08;46.94;101873.97;5036902;28;45459;-63
2023/08/21 04:27:06;;;;;;;;;2.00;2.00;;;;;25.08;46.92;101878.44;5036489;28;46055;-63
2023/08/21 04:29:33;;;;;;;;;3.75;2.25;;;;;25.01;47.18;101877.84;5036679;28;45489;-63
2023/08/21 04:31:58;;;;;;;;;2.75;2.50;;;;;25.01;47.24;101879.63;5037398;28;45497;-63
2023/08/21 04:34:24;;;;;;;;;4.75;1.75;;;;;25.06;47.41;101883.03;5040428;28;45426;-63
2023/08/21 04:36:49;;;;;;;;;2.00;2.00;;;;;25.04;46.67;101888.44;5038616;28;46203;-63
2023/08/21 04:39:15;;;;;;;;;1.25;1.25;;;;;24.92;46.97;101873.72;5037137;28;45497;-62
2023/08/21 04:41:42;;;;;;;;;2.75;2.75;;;;;24.95;46.67;101881.63;5036699;28;45505;-63
2023/08/21 04:44:07;;;;;;;;;0.75;0.00;;;;;24.95;46.58;101886.97;5038244;28;45442;-62
2023/08/21 04:46:33;;;;;;;;;1.00;1.00;;;;;25.02;46.71;101897.47;5034599;28;47693;-63
2023/08/21 04:48:58;;;;;;;;;2.75;1.00;;;;;24.96;47.26;101894.09;5034827;28;45314;-63
2023/08/21 04:51:24;;;;;;;;;1.25;1.25;;;;;24.93;46.88;101888.84;5036366;28;45342;-62
2023/08/21 04:53:50;;;;;;;;;2.25;2.25;;;;;24.98;46.60;101897.56;5035123;28;45663;-64
2023/08/21 04:56:15;;;;;;;;;3.00;3.00;;;;;25.01;46.94;101896.59;5034770;28;45378;-65
2023/08/21 04:58:41;;;;;;;;;1.25;1.00;;;;;24.97;46.58;101895.84;5036189;28;45576;-62
2023/08/21 05:01:06;;;;;;;;;1.75;1.75;;;;;24.98;46.66;101896.72;5035029;28;45510;-62
2023/08/21 05:03:32;;;;;;;;;2.00;1.00;;;;;24.97;46.47;101889.63;5036424;28;45381;-63
2023/08/21 05:05:57;;;;;;;;;1.00;1.00;;;;;25.00;46.54;101896.66;5051338;28;45773;-63
2023/08/21 05:08:24;;;;;;;;;3.25;1.00;;;;;24.98;46.36;101905.63;5036193;28;46100;-63
2023/08/21 05:10:59;;;;;;;;;2.25;1.00;;;;;24.98;46.84;101910.09;5039276;28;45438;-62
2023/08/21 05:13:31;;;;;;;;;1.00;1.00;;;;;24.88;46.53;101901.56;5040065;28;45330;-63
2023/08/21 05:15:58;;;;;;;;;3.25;1.50;;;;;24.97;46.54;101913.75;5030888;28;48084;-63
2023/08/21 05:18:24;;;;;;;;;1.00;1.00;;;;;24.97;46.35;101919.09;5041101;28;45434;-63
2023/08/21 05:20:51;;;;;;;;;1.00;1.00;;;;;24.88;46.59;101904.25;5041385;28;45668;-63
2023/08/21 05:23:17;;;;;;;;;3.00;1.00;;;;;24.95;46.19;101916.47;5040080;28;45966;-63
2023/08/21 05:25:46;;;;;;;;;1.75;0.50;;;;;24.92;45.92;101902.34;5039670;28;46731;-63
2023/08/21 05:28:12;;;;;;;;;2.25;1.50;;;;;24.90;46.38;101907.75;5036477;28;45466;-64
2023/08/21 05:30:38;;;;;;;;;1.00;1.00;;;;;24.87;46.23;101918.59;5039847;28;45489;-67
2023/08/21 05:33:09;;;;;;;;;1.75;1.75;;;;;24.76;46.40;101902.91;5041005;28;45423;-63
2023/08/21 05:35:36;;;;;;;;;0.50;0.50;;;;;24.89;46.60;101921.19;5041133;28;46247;-63
2023/08/21 05:38:03;;;;;;;;;1.50;1.50;;;;;24.88;46.17;101922.13;5040243;28;45488;-65
2023/08/21 05:40:28;;;;;;;;;2.00;1.00;;;;;24.85;46.15;101911.53;5038241;28;45654;-63
2023/08/21 05:42:54;;;;;;;;;2.75;1.00;;;;;24.86;46.03;101922.19;5039870;28;45433;-62
2023/08/21 05:45:19;;;;;;;;;2.00;1.00;;;;;24.83;45.83;101911.59;5040297;28;46239;-63
2023/08/21 05:47:45;;;;;;;;;1.00;1.00;;;;;24.93;45.84;101920.16;5040286;28;45366;-63
2023/08/21 05:50:10;;;;;;;;;1.00;1.00;;;;;24.97;45.78;101928.00;5040497;28;45500;-63
2023/08/21 05:52:36;;;;;;;;;2.00;1.00;;;;;25.05;45.70;101921.47;5039940;28;45640;-63
2023/08/21 05:55:01;;;;;;;;;1.50;1.00;;;;;25.09;45.49;101923.09;5039363;28;45997;-63
2023/08/21 05:57:27;;;;;;;;;1.00;1.00;;;;;25.07;45.72;101906.19;5038609;28;45479;-63
2023/08/21 05:59:52;;;;;;;;;1.00;1.00;;;;;25.15;45.63;101917.47;5053121;28;45433;-63
2023/08/21 06:02:18;;;;;;;;;2.75;1.00;;;;;25.25;45.73;101928.72;5039159;28;45315;-63
2023/08/21 06:04:44;;;;;;;;;1.25;1.25;;;;;25.28;45.22;101931.31;5038855;28;46494;-63
2023/08/21 06:07:09;;;;;;;;;1.75;1.00;;;;;25.33;44.84;101927.50;5038584;28;45521;-63
2023/08/21 06:09:36;;;;;;;;;5.25;4.00;;;;;25.44;45.08;101926.16;5035048;28;45536;-62
2023/08/21 06:12:04;;;;;;;;;2.00;2.00;;;;;25.48;44.74;101936.69;5039470;28;45432;-62
2023/08/21 06:14:30;;;;;;;;;2.75;2.75;;;;;25.54;44.75;101935.59;5037408;28;46099;-63
2023/08/21 06:17:03;;;;;;;;;1.25;1.25;;;;;25.61;44.48;101934.41;5034052;28;45474;-63
2023/08/21 06:19:29;;;;;;;;;2.00;2.00;;;;;25.67;44.09;101936.81;5037560;28;45670;-63
2023/08/21 06:21:55;;;;;;;;;1.00;1.00;;;;;25.70;44.07;101936.69;5037538;28;46311;-62
2023/08/21 06:24:22;;;;;;;;;2.50;1.00;;;;;25.72;44.10;101937.50;5038562;28;46691;-62
2023/08/21 06:26:47;;;;;;;;;1.00;0.00;;;;;25.74;43.57;101935.59;5038650;28;45467;-62
2023/08/21 06:29:13;;;;;;;;;1.00;1.00;;;;;25.84;43.80;101937.91;5038612;28;45382;-63
2023/08/21 06:31:38;;;;;;;;;1.00;1.00;;;;;25.89;43.92;101935.91;5039731;28;45390;-63
2023/08/21 06:34:04;;;;;;;;;0.25;0.25;;;;;25.94;43.46;101936.63;5038230;28;45969;-63
2023/08/21 06:36:30;;;;;;;;;1.00;1.00;;;;;25.95;43.43;101949.94;5037135;28;45442;-63
2023/08/21 06:38:56;;;;;;;;;1.25;1.00;;;;;25.95;43.41;101941.03;5039333;28;45316;-62
2023/08/21 06:41:22;;;;;;;;;3.00;1.25;;;;;25.96;43.59;101932.91;5038574;28;45300;-63
2023/08/21 06:43:47;;;;;;;;;1.50;1.00;;;;;26.09;43.40;101943.97;5038084;28;45386;-63
2023/08/21 06:46:13;;;;;;;;;2.00;2.00;;;;;26.13;44.17;101945.59;5038299;28;45593;-64
2023/08/21 06:48:41;;;;;;;;;35.00;29.33;;;;;26.13;43.33;101939.38;5037736;28;46815;-64
2023/08/21 06:51:06;;;;;;;;;32.33;31.67;;;;;26.15;43.51;101941.03;5037059;28;45485;-64
2023/08/21 06:53:32;;;;;;;;;15.25;10.25;;;;;26.16;43.36;101949.97;5037682;28;45568;-65
2023/08/21 06:55:58;;;;;;;;;5.75;3.50;;;;;26.12;43.26;101951.88;5037934;28;45417;-65
2023/08/21 06:58:23;;;;;;;;;1.00;1.00;;;;;26.07;43.09;101927.06;5038411;28;45415;-65
2023/08/21 07:00:49;;;;;;;;;1.25;1.25;;;;;26.21;43.09;101943.44;5038746;28;45351;-63
2023/08/21 07:03:14;;;;;;;;;3.00;1.00;;;;;26.21;43.00;101948.81;5037808;28;45302;-64
2023/08/21 07:05:46;;;;;;;;;3.00;2.00;;;;;26.14;43.25;101928.53;5037637;28;45359;-63
2023/08/21 07:08:12;;;;;;;;;2.00;1.00;;;;;26.23;42.39;101946.91;5036523;28;45544;-63
2023/08/21 07:10:38;;;;;;;;;1.75;1.75;;;;;26.19;42.71;101937.25;5037931;28;45821;-63
2023/08/21 07:13:04;;;;;;;;;3.00;2.00;;;;;26.29;42.44;101939.53;5038502;28;46203;-63
2023/08/21 07:15:29;;;;;;;;;4.00;1.00;;;;;26.38;42.60;101944.50;5033360;28;45950;-64
2023/08/21 07:17:55;;;;;;;;;0.75;0.75;;;;;26.36;42.36;101924.88;5037120;28;45561;-64
2023/08/21 07:20:22;;;;;;;;;6.50;2.00;;;;;26.49;42.22;101936.81;5038680;28;45331;-64
2023/08/21 07:22:47;;;;;;;;;2.00;1.00;;;;;26.65;42.14;101947.78;5038367;28;45428;-63
2023/08/21 07:25:13;;;;;;;;;2.75;2.75;;;;;26.61;41.40;101944.34;5037480;28;45454;-61
2023/08/21 07:27:39;;;;;;;;;1.25;1.25;;;;;26.48;41.39;101948.53;5037857;28;45712;-63
2023/08/21 07:30:06;;;;;;;;;1.00;1.00;;;;;26.42;42.01;101946.09;5038954;28;45485;-63
2023/08/21 07:32:32;;;;;;;;;1.50;1.25;;;;;26.36;42.06;101952.63;5025821;28;45808;-62
2023/08/21 07:34:57;;;;;;;;;2.00;1.75;;;;;26.38;41.91;101955.22;5037216;28;45517;-63
2023/08/21 07:37:23;;;;;;;;;1.50;1.50;;;;;26.33;42.11;101973.38;5037867;28;45521;-63
2023/08/21 07:39:52;;;;;;;;;0.75;0.75;;;;;26.41;41.76;101964.03;5037954;28;45501;-62
2023/08/21 07:42:24;;;;;;;;;0.25;0.00;;;;;26.48;41.33;101963.75;5032192;28;45588;-63
2023/08/21 07:44:49;;;;;;;;;2.40;1.00;;;;;26.56;41.60;101959.81;5041725;28;45586;-62
2023/08/21 07:47:15;;;;;;;;;3.00;1.50;;;;;26.64;41.65;101952.25;5036415;28;45409;-64
2023/08/21 07:49:41;;;;;;;;;1.00;1.00;;;;;26.74;41.32;101951.81;5039622;28;45181;-66
2023/08/21 07:52:07;;;;;;;;;0.50;0.50;;;;;26.82;41.21;101944.28;5038127;28;46377;-64
2023/08/21 07:54:56;;;;;;;;;1.00;1.00;;;;;26.88;40.87;101957.44;5035254;28;45951;-62
2023/08/21 07:57:21;;;;;;;;;1.00;1.00;;;;;26.82;40.68;101938.91;5052158;28;45373;-64
2023/08/21 07:59:47;;;;;;;;;1.00;1.00;;;;;27.02;41.08;101968.41;5032366;28;45591;-63
2023/08/21 08:02:13;;;;;;;;;2.00;2.00;;;;;27.04;40.93;101958.44;5021543;28;45948;-63
2023/08/21 08:04:39;;;;;;;;;4.00;2.00;;;;;27.03;40.95;101943.28;5037042;28;45418;-62
2023/08/21 08:07:05;;;;;;;;;2.50;1.00;;;;;27.12;40.70;101947.31;5037573;28;45604;-63
2023/08/21 08:09:30;;;;;;;;;1.00;1.00;;;;;27.25;40.53;101971.84;5037050;28;45635;-63
2023/08/21 08:11:56;;;;;;;;;2.00;0.25;;;;;27.27;39.83;101972.66;5036556;28;46958;-63
2023/08/21 08:14:22;;;;;;;;;1.00;1.00;;;;;27.25;40.56;101961.94;5036835;28;45443;-62
2023/08/21 08:16:47;;;;;;;;;1.00;1.00;;;;;27.25;40.67;101950.31;5038006;28;45317;-64
2023/08/21 08:19:13;;;;;;;;;1.75;1.75;;;;;27.35;40.47;101961.50;5037541;28;45440;-64
2023/08/21 08:21:38;;;;;;;;;1.00;1.00;;;;;27.38;40.42;101967.59;5036495;28;46474;-63
2023/08/21 08:24:04;;;;;;;;;1.00;0.25;;;;;27.40;40.25;101957.63;5036069;28;45904;-65
2023/08/21 08:26:30;;;;;;;;;1.75;1.00;;;;;27.38;40.55;101947.88;5037916;28;45481;-64
2023/08/21 08:28:59;;;;;;;;;2.00;1.00;;;;;27.48;40.71;101958.13;5038368;28;45477;-62
2023/08/21 08:31:25;;;;;;;;;1.75;1.25;;;;;27.51;40.63;101958.94;5035627;28;45561;-64
2023/08/21 08:33:51;;;;;;;;;1.00;1.00;;;;;27.55;41.27;101956.00;5036304;28;45516;-64
2023/08/21 08:36:17;;;;;;;;;1.25;1.00;;;;;27.60;40.31;101961.16;5037214;28;45385;-64
2023/08/21 08:38:43;;;;;;;;;2.00;1.00;;;;;27.61;40.61;101970.97;5036662;28;45288;-63
2023/08/21 08:41:27;;;;;;;;;2.00;1.00;;;;;27.64;39.90;101954.66;5036363;28;45318;-62
2023/08/21 08:43:57;;;;;;;;;3.80;2.20;;;;;27.61;40.20;101955.69;5051369;28;45359;-63
2023/08/21 08:46:29;;;;;;;;;2.00;0.00;;;;;27.60;40.37;101945.88;5036545;28;45464;-62
2023/08/21 08:48:56;;;;;;;;;3.00;2.00;;;;;27.61;40.22;101941.38;5035136;28;45926;-64
2023/08/21 08:51:24;;;;;;;;;2.00;0.00;;;;;27.72;41.26;101948.91;5036552;28;46174;-64
2023/08/21 08:53:50;;;;;;;;;2.80;1.00;;;;;27.76;40.22;101947.78;5036447;28;45293;-68
2023/08/21 08:56:16;;;;;;;;;4.75;1.50;;;;;27.83;40.21;101946.53;5036922;28;45456;-65
2023/08/21 08:58:42;;;;;;;;;2.00;2.00;;;;;27.70;40.33;101944.47;5037125;28;45394;-65
2023/08/21 09:01:10;;;;;;;;;4.25;2.25;;;;;27.61;40.72;101946.75;5036187;28;46212;-64
2023/08/21 09:03:36;;;;;;;;;2.80;2.00;;;;;27.55;40.52;101939.88;5035914;28;45418;-63
2023/08/21 09:06:02;;;;;;;;;2.00;2.00;;;;;27.62;40.73;101949.38;5035557;28;45447;-65
2023/08/21 09:08:29;;;;;;;;;2.00;1.00;;;;;27.66;40.72;101959.00;5036488;28;45303;-65
2023/08/21 09:10:55;;;;;;;;;1.00;1.00;;;;;27.69;40.81;101950.81;5036516;28;45525;-64
2023/08/21 09:13:20;;;;;;;;;1.00;1.00;;;;;27.51;40.76;101937.41;5036381;28;45834;-65
2023/08/21 09:15:48;;;;;;;;;1.00;1.00;;;;;27.51;40.89;101948.16;5035741;28;45496;-65
2023/08/21 09:18:15;;;;;;;;;3.50;2.00;;;;;27.47;41.26;101942.91;5036358;28;45474;-64
2023/08/21 09:20:41;;;;;;;;;3.50;2.00;;;;;27.39;40.71;101936.19;5035602;28;45563;-64
2023/08/21 09:23:12;;;;;;;;;1.60;1.60;;;;;27.29;41.06;101933.09;5036011;28;45648;-64
2023/08/21 09:25:39;;;;;;;;;3.00;3.00;;;;;27.33;41.31;101939.19;5036435;28;45339;-63
2023/08/21 09:28:08;;;;;;;;;4.00;2.75;;;;;27.14;41.50;101923.91;5036424;28;45390;-64
2023/08/21 09:30:47;;;;;;;;;3.00;2.25;;;;;27.12;42.16;101933.00;5035514;28;45478;-63
2023/08/21 09:33:16;;;;;;;;;3.20;1.60;;;;;27.10;42.17;101926.81;5035588;28;45358;-64
2023/08/21 09:35:46;;;;;;;;;3.20;2.40;;;;;27.05;41.74;101902.84;5036136;28;45464;-63
2023/08/21 09:38:12;;;;;;;;;2.50;2.50;;;;;27.18;42.00;101916.56;5035310;28;45840;-64
2023/08/21 09:40:42;;;;;;;;;1.75;1.75;;;;;27.29;42.04;101914.28;5035566;28;45415;-64
2023/08/21 09:43:11;;;;;;;;;2.60;2.60;;;;;27.49;41.84;101924.88;5035433;28;45987;-63
2023/08/21 09:45:37;;;;;;;;;2.00;2.00;;;;;27.63;41.33;101931.41;5036859;28;45398;-64
2023/08/21 09:48:05;;;;;;;;;3.00;3.00;;;;;27.66;41.29;101933.94;5036236;28;45493;-66
2023/08/21 09:50:31;;;;;;;;;2.00;2.00;;;;;27.69;41.68;101921.19;5033990;28;46694;-66
2023/08/21 09:52:58;;;;;;;;;3.40;2.20;;;;;27.75;41.42;101916.44;5035846;28;45814;-64
2023/08/21 09:55:29;;;;;;;;;4.20;2.40;;;;;27.83;41.20;101922.31;5037513;28;45557;-63
2023/08/21 09:57:58;;;;;;;;;3.00;2.75;;;;;27.92;41.38;101922.72;5041070;28;45295;-65
2023/08/21 10:00:30;;;;;;;;;3.00;2.00;;;;;27.93;41.20;101918.22;5038760;28;45468;-66
2023/08/21 10:03:01;;;;;;;;;3.00;3.00;;;;;28.06;41.22;101927.38;5039554;28;45413;-67
2023/08/21 10:05:28;;;;;;;;;3.20;2.00;;;;;28.03;41.26;101902.44;5039105;28;45427;-66
2023/08/21 10:07:55;;;;;;;;;3.00;3.00;;;;;28.23;40.92;101914.84;5038103;28;45862;-67
2023/08/21 10:10:21;;;;;;;;;3.00;3.00;;;;;28.25;40.74;101924.56;5038913;28;45843;-69
2023/08/21 10:12:48;;;;;;;;;3.50;2.00;;;;;28.32;40.56;101922.41;5038733;28;45421;-64
2023/08/21 10:15:15;;;;;;;;;2.80;2.60;;;;;28.33;40.72;101916.06;5039086;28;45538;-64
2023/08/21 10:17:43;;;;;;;;;3.25;3.25;;;;;28.46;40.37;101916.31;5039123;28;45426;-66
2023/08/21 10:20:09;;;;;;;;;3.00;3.00;;;;;28.43;40.83;101898.47;5038997;28;45421;-64
2023/08/21 10:22:46;;;;;;;;;2.80;2.80;;;;;28.57;40.64;101908.53;5038298;28;45512;-62
2023/08/21 10:25:25;;;;;;;;;3.80;2.00;;;;;28.69;40.43;101907.84;5038667;28;45544;-63
2023/08/21 10:28:04;;;;;;;;;3.00;3.00;;;;;28.74;40.62;101884.19;5037679;28;45578;-64
2023/08/21 10:30:31;;;;;;;;;2.20;2.20;;;;;28.84;40.16;101879.13;5025347;28;45572;-64
2023/08/21 10:32:59;;;;;;;;;3.00;3.00;;;;;29.05;39.93;101892.34;5039169;28;45406;-64
2023/08/21 10:35:31;;;;;;;;;3.80;3.80;;;;;29.14;39.45;101892.72;5039765;28;45538;-63
2023/08/21 10:38:08;;;;;;;;;2.00;2.00;;;;;29.26;39.14;101884.84;5040324;28;45373;-64
2023/08/21 10:40:35;;;;;;;;;7.40;3.40;;;;;29.33;39.55;101895.22;5038270;28;46788;-64
2023/08/21 10:43:02;;;;;;;;;1.00;1.00;;;;;29.39;38.58;101888.56;5039287;28;45448;-63
2023/08/21 10:45:28;;;;;;;;;4.60;3.40;;;;;29.44;38.56;101885.59;5038718;28;45470;-63
2023/08/21 10:47:57;;;;;;;;;2.20;2.20;;;;;29.46;38.10;101873.75;5038572;28;45366;-63
2023/08/21 10:50:23;;;;;;;;;5.60;2.00;;;;;29.53;37.91;101877.81;5037976;28;45632;-64
2023/08/21 10:52:52;;;;;;;;;2.00;2.00;;;;;29.66;37.79;101874.38;5038654;28;45518;-65
2023/08/21 10:55:18;;;;;;;;;3.20;3.00;;;;;29.77;37.46;101877.34;5038898;28;45276;-63
2023/08/21 10:57:49;;;;;;;;;3.20;1.80;;;;;29.84;37.43;101873.28;5038629;28;45203;-64
2023/08/21 11:00:17;;;;;;;;;2.80;2.00;;;;;29.94;37.06;101874.47;5039257;28;45356;-63
2023/08/21 11:02:45;;;;;;;;;1.20;1.20;;;;;29.97;36.64;101871.59;5038332;28;46040;-64
2023/08/21 11:05:12;;;;;;;;;4.00;2.60;;;;;30.07;37.16;101871.03;5040172;28;45462;-63
2023/08/21 11:07:40;;;;;;;;;4.00;3.00;;;;;30.13;36.05;101871.47;5039110;28;45317;-64
2023/08/21 11:10:11;;;;;;;;;4.00;1.00;;;;;30.21;35.81;101857.50;5038469;28;45437;-65
2023/08/21 11:12:37;;;;;;;;;5.00;3.20;;;;;30.29;35.44;101862.44;5037983;28;45779;-62
2023/08/21 11:15:04;;;;;;;;;4.00;3.25;;;;;30.35;36.25;101860.25;5035207;28;45418;-63
2023/08/21 11:17:29;;;;;;;;;2.40;2.40;;;;;30.47;36.34;101855.88;5033961;28;45326;-64
2023/08/21 11:19:56;;;;;;;;;3.50;3.25;;;;;30.53;35.62;101860.00;5038346;28;46197;-62
2023/08/21 11:22:30;;;;;;;;;4.00;3.00;;;;;30.53;35.82;101847.34;5038032;28;45497;-65
2023/08/21 11:24:56;;;;;;;;;2.20;2.20;;;;;30.69;36.16;101847.22;5039201;28;45486;-63